createdAt,value
2018-10-11T00:01:19.670Z,98.90
2018-10-11T00:03:49.223Z,99.30
2018-10-11T00:06:18.778Z,99.30
2018-10-11T00:08:48.353Z,99.40
2018-10-11T00:11:17.878Z,99.50
2018-10-11T00:13:47.641Z,99.60
2018-10-11T00:16:17.130Z,99.50
2018-10-11T00:18:46.668Z,99.50
2018-10-11T00:21:16.170Z,99.60
2018-10-11T00:23:45.713Z,99.70
2018-10-11T00:26:15.206Z,99.70
2018-10-11T00:28:44.734Z,99.70
2018-10-11T00:31:14.245Z,99.80
2018-10-11T00:33:43.830Z,99.70
2018-10-11T00:36:13.354Z,99.60
2018-10-11T00:38:42.866Z,99.60
2018-10-11T00:41:12.370Z,99.60
2018-10-11T00:43:41.931Z,99.60
2018-10-11T00:46:11.481Z,99.60
2018-10-11T00:48:41.000Z,99.60
2018-10-11T00:51:10.489Z,99.40
2018-10-11T00:53:39.974Z,99.50
2018-10-11T00:56:09.550Z,99.40
2018-10-11T00:58:39.057Z,99.30
2018-10-11T01:01:08.669Z,99.40
2018-10-11T01:03:38.205Z,99.40
2018-10-11T01:06:07.913Z,99.40
2018-10-11T01:08:37.452Z,99.50
2018-10-11T01:11:07.005Z,99.60
2018-10-11T01:13:36.538Z,99.70
2018-10-11T01:16:06.122Z,99.80
2018-10-11T01:18:35.713Z,99.70
2018-10-11T01:21:05.315Z,99.70
2018-10-11T01:23:35.049Z,99.80
2018-10-11T01:26:05.678Z,99.70
2018-10-11T01:28:35.228Z,99.70
2018-10-11T01:31:10.014Z,99.80
2018-10-11T01:33:39.586Z,99.70
2018-10-11T01:36:09.145Z,99.80
2018-10-11T01:38:38.808Z,99.70
2018-10-11T01:41:07.991Z,99.60
2018-10-11T01:43:37.555Z,99.50
2018-10-11T01:46:07.273Z,99.70
2018-10-11T01:48:37.925Z,99.40
2018-10-11T01:51:07.557Z,99.50
2018-10-11T01:53:37.137Z,99.70
2018-10-11T01:56:06.773Z,99.70
2018-10-11T01:58:36.592Z,99.60
2018-10-11T02:01:06.359Z,99.60
2018-10-11T02:03:35.852Z,99.50
2018-10-11T02:06:05.429Z,99.40
2018-10-11T02:08:35.001Z,99.50
2018-10-11T02:11:05.909Z,99.40
2018-10-11T02:13:35.451Z,99.30
2018-10-11T02:16:05.045Z,99.40
2018-10-11T02:18:34.613Z,99.40
2018-10-11T02:21:05.370Z,99.60
2018-10-11T02:23:35.206Z,99.60
2018-10-11T02:26:04.714Z,99.70
2018-10-11T02:28:34.226Z,99.70
2018-10-11T02:31:04.395Z,99.70
2018-10-11T02:33:33.950Z,99.60
2018-10-11T02:36:03.498Z,99.60
2018-10-11T02:38:33.081Z,99.70
2018-10-11T02:41:02.577Z,99.60
2018-10-11T02:43:32.134Z,99.60
2018-10-11T02:46:01.670Z,99.70
2018-10-11T02:48:31.166Z,99.60
2018-10-11T02:51:00.708Z,99.60
2018-10-11T02:53:30.315Z,99.60
2018-10-11T02:55:59.874Z,99.50
2018-10-11T02:58:40.545Z,99.50
2018-10-11T03:01:10.263Z,99.50
2018-10-11T03:03:39.877Z,99.60
2018-10-11T03:06:09.882Z,99.60
2018-10-11T03:08:39.575Z,99.50
2018-10-11T03:11:09.289Z,99.40
2018-10-11T03:13:38.881Z,99.40
2018-10-11T03:16:08.429Z,99.30
2018-10-11T03:18:38.021Z,99.10
2018-10-11T03:21:07.673Z,99.10
2018-10-11T03:23:37.274Z,99.10
2018-10-11T03:26:06.874Z,98.90
2018-10-11T03:28:36.421Z,99.10
2018-10-11T03:31:06.090Z,99.20
2018-10-11T03:33:35.821Z,99.10
2018-10-11T03:36:05.362Z,99.10
2018-10-11T03:38:35.334Z,99.00
2018-10-11T03:41:04.930Z,98.90
2018-10-11T03:43:34.543Z,98.90
2018-10-11T03:46:04.170Z,98.90
2018-10-11T03:48:33.695Z,99.20
2018-10-11T03:51:03.270Z,99.30
2018-10-11T03:53:32.853Z,99.40
2018-10-11T03:56:02.414Z,99.40
2018-10-11T03:58:31.914Z,99.40
2018-10-11T04:01:01.521Z,99.60
2018-10-11T04:03:31.036Z,99.60
2018-10-11T04:06:00.565Z,99.70
2018-10-11T04:08:30.011Z,99.90
2018-10-11T04:11:01.419Z,99.80
2018-10-11T04:13:30.905Z,99.70
2018-10-11T04:16:00.435Z,99.80
2018-10-11T04:18:29.935Z,99.70
2018-10-11T04:20:59.439Z,99.80
2018-10-11T04:23:29.734Z,99.80
2018-10-11T04:26:00.091Z,99.80
2018-10-11T04:28:30.062Z,99.90
2018-10-11T04:31:00.166Z,99.70
2018-10-11T04:33:29.934Z,99.70
2018-10-11T04:35:59.530Z,99.70
2018-10-11T04:38:29.101Z,99.70
2018-10-11T04:40:58.543Z,99.60
2018-10-11T04:43:28.030Z,99.40
2018-10-11T04:45:57.579Z,99.20
2018-10-11T04:48:27.103Z,99.00
2018-10-11T04:50:56.625Z,98.90
2018-10-11T04:53:26.134Z,98.90
2018-10-11T04:55:55.741Z,98.80
2018-10-11T04:58:25.246Z,99.00
2018-10-11T05:00:54.742Z,99.30
2018-10-11T05:03:24.255Z,99.30
2018-10-11T05:05:53.813Z,99.30
2018-10-11T05:08:24.338Z,99.20
2018-10-11T05:10:53.951Z,99.10
2018-10-11T05:13:34.310Z,99.10
2018-10-11T05:16:03.823Z,99.00
2018-10-11T05:18:33.510Z,98.90
2018-10-11T05:21:03.627Z,98.80
2018-10-11T05:23:34.766Z,98.70
2018-10-11T05:26:04.320Z,98.70
2018-10-11T05:28:33.757Z,98.50
2018-10-11T05:31:03.631Z,98.40
2018-10-11T05:33:33.213Z,98.10
2018-10-11T05:36:02.680Z,98.10
2018-10-11T05:38:32.161Z,98.10
2018-10-11T05:41:01.674Z,98.00
2018-10-11T05:43:31.839Z,98.00
2018-10-11T05:46:04.562Z,98.10
2018-10-11T05:48:34.453Z,98.30
2018-10-11T05:51:04.798Z,98.10
2018-10-11T05:53:34.875Z,98.10
2018-10-11T05:56:04.552Z,98.20
2018-10-11T05:58:34.061Z,98.30
2018-10-11T06:01:03.638Z,98.30
2018-10-11T06:03:33.590Z,98.40
2018-10-11T06:06:03.055Z,98.40
2018-10-11T06:08:32.639Z,98.40
2018-10-11T06:11:02.314Z,98.80
2018-10-11T06:13:31.950Z,98.90
2018-10-11T06:16:02.226Z,98.80
2018-10-11T06:18:31.939Z,98.70
2018-10-11T06:21:01.460Z,98.70
2018-10-11T06:23:31.035Z,98.60
2018-10-11T06:26:00.575Z,98.50
2018-10-11T06:28:30.240Z,98.50
2018-10-11T06:30:59.848Z,98.40
2018-10-11T06:33:29.433Z,98.30
2018-10-11T06:35:59.367Z,98.20
2018-10-11T06:38:29.376Z,98.20
2018-10-11T06:40:59.199Z,98.40
2018-10-11T06:43:28.806Z,98.50
2018-10-11T06:45:58.383Z,98.40
2018-10-11T06:48:28.058Z,98.40
2018-10-11T06:50:57.725Z,98.40
2018-10-11T06:53:27.305Z,98.30
2018-10-11T06:55:56.805Z,98.20
2018-10-11T06:58:26.314Z,97.50
2018-10-11T07:00:55.950Z,97.50
2018-10-11T07:03:25.458Z,97.30
2018-10-11T07:05:54.994Z,97.20
2018-10-11T07:08:24.527Z,97.20
2018-10-11T07:10:54.160Z,97.10
2018-10-11T07:13:23.990Z,97.00
2018-10-11T07:15:53.470Z,96.90
2018-10-11T07:18:22.970Z,96.90
2018-10-11T07:20:52.414Z,97.10
2018-10-11T07:23:22.530Z,97.00
2018-10-11T07:25:52.469Z,96.80
2018-10-11T07:28:22.004Z,96.60
2018-10-11T07:30:51.498Z,96.60
2018-10-11T07:33:21.070Z,96.60
2018-10-11T07:35:50.562Z,96.60
2018-10-11T07:38:20.471Z,96.50
2018-10-11T07:40:50.055Z,96.50
2018-10-11T07:43:19.493Z,96.30
2018-10-11T07:45:48.938Z,96.10
2018-10-11T07:48:18.414Z,96.00
2018-10-11T07:50:47.858Z,95.80
2018-10-11T07:53:17.515Z,95.90
2018-10-11T07:55:47.001Z,96.30
2018-10-11T07:58:16.516Z,95.80
2018-10-11T08:00:46.361Z,95.60
2018-10-11T08:03:15.838Z,95.60
2018-10-11T08:05:45.523Z,95.40
2018-10-11T08:08:15.021Z,95.00
2018-10-11T08:10:44.609Z,94.80
2018-10-11T08:13:14.097Z,94.80
2018-10-11T08:15:43.552Z,94.90
2018-10-11T08:18:13.013Z,94.70
2018-10-11T08:20:42.467Z,94.60
2018-10-11T08:23:11.918Z,94.50
2018-10-11T08:25:41.648Z,94.20
2018-10-11T08:28:11.047Z,93.90
2018-10-11T08:30:40.558Z,93.70
2018-10-11T08:33:10.167Z,93.40
2018-10-11T08:35:39.578Z,93.00
2018-10-11T08:38:09.779Z,92.60
2018-10-11T08:40:39.113Z,92.40
2018-10-11T08:43:08.560Z,92.00
2018-10-11T08:45:38.066Z,91.60
2018-10-11T08:48:08.050Z,91.80
2018-10-11T08:50:37.603Z,91.50
2018-10-11T08:53:09.478Z,90.40
2018-10-11T08:55:39.069Z,90.30
2018-10-11T08:58:08.666Z,88.50
2018-10-11T09:00:38.159Z,88.00
2018-10-11T09:03:07.714Z,88.50
2018-10-11T09:05:37.205Z,87.50
2018-10-11T09:08:06.902Z,86.80
2018-10-11T09:10:38.516Z,87.70
2018-10-11T09:13:07.088Z,85.60
2018-10-11T09:15:36.609Z,84.60
2018-10-11T09:18:06.182Z,81.20
2018-10-11T09:20:35.674Z,80.90
2018-10-11T09:23:05.208Z,80.60
2018-10-11T09:25:34.703Z,81.00
2018-10-11T09:28:04.543Z,80.30
2018-10-11T09:30:34.070Z,81.40
2018-10-11T09:33:03.609Z,81.00
2018-10-11T09:35:33.111Z,79.90
2018-10-11T09:38:02.555Z,76.90
2018-10-11T09:40:32.091Z,78.20
2018-10-11T09:43:01.624Z,77.10
2018-10-11T09:45:31.189Z,78.00
2018-10-11T09:48:00.670Z,77.60
2018-10-11T09:50:30.199Z,74.50
2018-10-11T09:52:59.734Z,71.90
2018-10-11T09:55:29.299Z,70.90
2018-10-11T09:57:58.807Z,71.60
2018-10-11T10:00:33.714Z,70.70
2018-10-11T10:03:03.235Z,70.80
2018-10-11T10:05:32.763Z,69.30
2018-10-11T10:08:02.342Z,67.80
2018-10-11T10:10:32.650Z,67.50
2018-10-11T10:13:02.693Z,65.90
2018-10-11T10:15:35.224Z,66.00
2018-10-11T10:18:04.751Z,64.80
2018-10-11T10:20:34.319Z,63.90
2018-10-11T10:23:03.859Z,65.20
2018-10-11T10:25:33.381Z,66.80
2018-10-11T10:28:02.893Z,66.70
2018-10-11T10:30:37.588Z,64.30
2018-10-11T10:33:07.462Z,59.60
2018-10-11T10:35:36.962Z,61.00
2018-10-11T10:38:06.462Z,60.70
2018-10-11T10:40:36.737Z,62.10
2018-10-11T10:43:06.190Z,62.50
2018-10-11T10:45:35.646Z,62.90
2018-10-11T10:48:05.109Z,61.70
2018-10-11T10:50:35.574Z,61.50
2018-10-11T10:53:06.142Z,60.70
2018-10-11T10:55:36.914Z,60.20
2018-10-11T10:58:06.650Z,59.60
2018-10-11T11:00:36.516Z,57.80
2018-10-11T11:03:06.373Z,58.80
2018-10-11T11:05:36.010Z,57.90
2018-10-11T11:08:05.542Z,58.10
2018-10-11T11:10:35.078Z,58.10
2018-10-11T11:13:04.736Z,56.80
2018-10-11T11:15:38.010Z,56.90
2018-10-11T11:18:07.543Z,57.40
2018-10-11T11:20:37.046Z,56.70
2018-10-11T11:23:07.090Z,56.80
2018-10-11T11:25:37.768Z,55.60
2018-10-11T11:28:07.364Z,55.40
2018-10-11T11:30:36.823Z,55.10
2018-10-11T11:33:06.390Z,57.70
2018-10-11T11:35:35.835Z,55.90
2018-10-11T11:38:07.294Z,53.40
2018-10-11T11:40:36.801Z,52.60
2018-10-11T11:43:06.713Z,51.90
2018-10-11T11:45:36.416Z,52.60
2018-10-11T11:48:06.576Z,51.70
2018-10-11T11:50:36.168Z,51.70
2018-10-11T11:53:05.716Z,52.70
2018-10-11T11:55:35.225Z,51.50
2018-10-11T11:58:04.754Z,51.60
2018-10-11T12:00:34.271Z,50.30
2018-10-11T12:03:03.799Z,50.00
2018-10-11T12:05:33.311Z,50.20
2018-10-11T12:08:02.826Z,49.80
2018-10-11T12:10:32.341Z,49.30
2018-10-11T12:13:03.094Z,48.20
2018-10-11T12:15:33.315Z,47.80
2018-10-11T12:18:03.668Z,48.50
2018-10-11T12:20:34.381Z,47.80
2018-10-11T12:23:05.010Z,47.10
2018-10-11T12:25:34.845Z,47.10
2018-10-11T12:28:04.387Z,46.60
2018-10-11T12:30:33.914Z,46.00
2018-10-11T12:33:03.416Z,46.50
2018-10-11T12:35:32.902Z,45.90
2018-10-11T12:38:03.678Z,45.70
2018-10-11T12:40:33.190Z,45.40
2018-10-11T12:43:03.090Z,45.30
2018-10-11T12:45:32.652Z,44.20
2018-10-11T12:48:02.254Z,43.40
2018-10-11T12:50:32.499Z,43.30
2018-10-11T12:53:02.182Z,42.40
2018-10-11T12:55:31.642Z,41.80
2018-10-11T12:58:01.137Z,40.60
2018-10-11T13:00:30.594Z,40.40
2018-10-11T13:03:00.522Z,39.40
2018-10-11T13:05:29.954Z,39.20
2018-10-11T13:08:00.378Z,37.70
2018-10-11T13:10:29.881Z,37.20
2018-10-11T13:13:05.221Z,36.70
2018-10-11T13:15:29.000Z,36.90
2018-10-11T13:17:58.474Z,37.00
2018-10-11T13:20:27.922Z,36.80
2018-10-11T13:22:57.522Z,35.80
2018-10-11T13:25:26.962Z,35.90
2018-10-11T13:27:56.454Z,36.10
2018-10-11T13:30:26.063Z,35.90
2018-10-11T13:32:55.566Z,35.60
2018-10-11T13:35:25.048Z,36.00
2018-10-11T13:37:54.497Z,34.40
2018-10-11T13:40:23.996Z,34.30
2018-10-11T13:42:53.457Z,34.20
2018-10-11T13:45:22.978Z,34.30
2018-10-11T13:47:52.473Z,34.00
2018-10-11T13:50:22.111Z,33.90
2018-10-11T13:52:51.836Z,33.30
2018-10-11T13:55:21.330Z,32.90
2018-10-11T13:57:50.946Z,32.60
2018-10-11T14:00:20.506Z,32.40
2018-10-11T14:02:50.248Z,31.90
2018-10-11T14:05:19.776Z,31.80
2018-10-11T14:07:49.238Z,31.70
2018-10-11T14:10:18.722Z,31.80
2018-10-11T14:12:48.185Z,31.70
2018-10-11T14:15:17.678Z,31.20
2018-10-11T14:17:47.247Z,31.20
2018-10-11T14:20:16.686Z,31.70
2018-10-11T14:22:46.293Z,31.80
2018-10-11T14:25:15.939Z,32.60
2018-10-11T14:27:45.489Z,32.60
2018-10-11T14:30:14.966Z,32.80
2018-10-11T14:32:44.464Z,32.30
2018-10-11T14:35:13.958Z,32.40
2018-10-11T14:37:43.434Z,32.50
2018-10-11T14:40:13.771Z,33.00
2018-10-11T14:42:43.311Z,33.10
2018-10-11T14:45:12.855Z,33.40
2018-10-11T14:47:42.406Z,33.90
2018-10-11T14:50:11.987Z,34.20
2018-10-11T14:52:41.555Z,34.40
2018-10-11T14:55:12.027Z,35.40
2018-10-11T14:57:41.533Z,34.80
2018-10-11T15:00:11.110Z,35.40
2018-10-11T15:02:41.396Z,36.10
2018-10-11T15:05:10.868Z,36.80
2018-10-11T15:07:40.351Z,37.00
2018-10-11T15:10:09.934Z,37.70
2018-10-11T15:12:40.235Z,40.00
2018-10-11T15:15:09.731Z,43.30
2018-10-11T15:17:39.308Z,46.20
2018-10-11T15:20:09.088Z,48.60
2018-10-11T15:22:40.509Z,51.00
2018-10-11T15:25:10.120Z,52.90
2018-10-11T15:27:40.769Z,54.70
2018-10-11T15:30:10.306Z,56.60
2018-10-11T15:32:39.818Z,57.60
2018-10-11T15:35:09.377Z,59.00
2018-10-11T15:37:38.854Z,59.40
2018-10-11T15:40:08.400Z,59.80
2018-10-11T15:42:38.017Z,60.70
2018-10-11T15:45:08.761Z,61.90
2018-10-11T15:47:38.857Z,63.00
2018-10-11T15:50:08.498Z,64.40
2018-10-11T15:52:38.078Z,66.00
2018-10-11T15:55:07.595Z,68.60
2018-10-11T15:57:37.151Z,69.80
2018-10-11T16:00:06.814Z,70.70
2018-10-11T16:02:36.354Z,71.90
2018-10-11T16:05:06.122Z,72.60
2018-10-11T16:07:36.042Z,74.60
2018-10-11T16:10:05.834Z,74.80
2018-10-11T16:12:35.326Z,76.10
2018-10-11T16:15:05.355Z,77.10
2018-10-11T16:17:34.859Z,78.20
2018-10-11T16:20:04.491Z,79.30
2018-10-11T16:22:34.045Z,80.30
2018-10-11T16:25:04.023Z,80.70
2018-10-11T16:27:33.851Z,81.80
2018-10-11T16:30:03.370Z,82.90
2018-10-11T16:32:32.890Z,83.40
2018-10-11T16:35:02.346Z,84.00
2018-10-11T16:37:31.856Z,85.10
2018-10-11T16:40:01.318Z,85.20
2018-10-11T16:42:30.861Z,85.80
2018-10-11T16:45:00.354Z,86.20
2018-10-11T16:47:29.866Z,86.80
2018-10-11T16:49:59.691Z,86.50
2018-10-11T16:52:29.202Z,86.90
2018-10-11T16:54:58.685Z,87.00
2018-10-11T16:57:28.135Z,87.30
2018-10-11T16:59:57.660Z,87.90
2018-10-11T17:02:27.126Z,88.80
2018-10-11T17:04:56.694Z,89.50
2018-10-11T17:07:26.154Z,89.80
2018-10-11T17:09:55.746Z,90.00
2018-10-11T17:12:25.205Z,90.00
2018-10-11T17:14:54.658Z,90.00
2018-10-11T17:17:24.206Z,90.10
2018-10-11T17:19:53.718Z,90.30
2018-10-11T17:22:23.254Z,90.30
2018-10-11T17:24:52.757Z,90.50
2018-10-11T17:27:22.375Z,90.60
2018-10-11T17:29:51.998Z,90.70
2018-10-11T17:32:21.498Z,90.90
2018-10-11T17:34:50.994Z,91.00
2018-10-11T17:37:20.482Z,91.20
2018-10-11T17:39:50.031Z,91.30
2018-10-11T17:42:19.567Z,91.30
2018-10-11T17:44:49.186Z,91.40
2018-10-11T17:47:18.726Z,91.50
2018-10-11T17:49:48.923Z,91.70
2018-10-11T17:52:19.967Z,91.80
2018-10-11T17:54:55.196Z,91.80
2018-10-11T17:57:25.475Z,92.10
2018-10-11T17:59:55.000Z,92.30
2018-10-11T18:02:24.540Z,92.50
2018-10-11T18:04:54.438Z,92.60
2018-10-11T18:07:24.002Z,92.60
2018-10-11T18:09:53.550Z,92.80
2018-10-11T18:12:23.352Z,93.00
2018-10-11T18:14:52.823Z,93.20
2018-10-11T18:17:22.355Z,93.30
2018-10-11T18:19:51.955Z,93.40
2018-10-11T18:22:21.578Z,93.50
2018-10-11T18:24:52.520Z,93.50
2018-10-11T18:27:22.038Z,93.30
2018-10-11T18:29:51.622Z,93.50
2018-10-11T18:32:21.104Z,93.70
2018-10-11T18:34:50.691Z,93.90
2018-10-11T18:37:20.923Z,94.10
2018-10-11T18:39:50.494Z,94.20
2018-10-11T18:42:20.106Z,94.20
2018-10-11T18:44:49.757Z,94.30
2018-10-11T18:47:19.370Z,94.30
2018-10-11T18:49:49.163Z,94.40
2018-10-11T18:52:18.808Z,94.50
2018-10-11T18:54:48.455Z,94.80
2018-10-11T18:57:17.978Z,94.40
2018-10-11T18:59:47.455Z,94.50
2018-10-11T19:02:16.970Z,94.60
2018-10-11T19:04:46.449Z,94.60
2018-10-11T19:07:15.912Z,94.70
2018-10-11T19:09:45.402Z,94.80
2018-10-11T19:12:14.958Z,95.10
2018-10-11T19:14:44.528Z,95.30
2018-10-11T19:17:14.070Z,95.50
2018-10-11T19:19:43.742Z,95.60
2018-10-11T19:22:13.315Z,95.60
2018-10-11T19:24:42.886Z,95.60
2018-10-11T19:27:12.485Z,95.50
2018-10-11T19:29:42.051Z,95.40
2018-10-11T19:32:11.587Z,95.50
2018-10-11T19:34:41.122Z,95.60
2018-10-11T19:37:10.621Z,95.80
2018-10-11T19:39:40.153Z,95.40
2018-10-11T19:42:10.496Z,95.30
2018-10-11T19:44:39.988Z,95.40
2018-10-11T19:47:09.481Z,95.70
2018-10-11T19:49:39.084Z,95.60
2018-10-11T19:52:08.794Z,95.70
2018-10-11T19:54:38.347Z,95.70
2018-10-11T19:57:07.886Z,95.80
2018-10-11T19:59:37.423Z,95.90
2018-10-11T20:02:06.958Z,95.90
2018-10-11T20:04:36.537Z,95.90
2018-10-11T20:07:06.243Z,95.90
2018-10-11T20:09:35.850Z,95.90
2018-10-11T20:12:05.440Z,96.10
2018-10-11T20:14:35.311Z,96.20
2018-10-11T20:17:04.900Z,96.40
2018-10-11T20:19:34.461Z,96.30
2018-10-11T20:22:03.986Z,96.30
2018-10-11T20:24:33.486Z,96.40
2018-10-11T20:27:03.038Z,96.30
2018-10-11T20:29:32.578Z,96.10
2018-10-11T20:32:02.078Z,96.00
2018-10-11T20:34:32.530Z,96.00
2018-10-11T20:37:02.063Z,95.90
2018-10-11T20:39:31.618Z,96.00
2018-10-11T20:42:01.090Z,96.30
2018-10-11T20:44:30.740Z,96.20
2018-10-11T20:47:00.259Z,96.30
2018-10-11T20:49:29.763Z,96.20
2018-10-11T20:51:59.279Z,96.20
2018-10-11T20:54:28.778Z,96.10
2018-10-11T20:56:58.298Z,96.00
2018-10-11T20:59:27.837Z,96.00
2018-10-11T21:01:58.262Z,96.00
2018-10-11T21:04:27.762Z,96.20
2018-10-11T21:06:57.298Z,96.30
2018-10-11T21:09:26.806Z,96.30
2018-10-11T21:11:56.356Z,96.40
2018-10-11T21:14:25.823Z,96.40
2018-10-11T21:16:55.382Z,96.40
2018-10-11T21:19:24.887Z,96.30
2018-10-11T21:21:54.334Z,96.20
2018-10-11T21:24:23.786Z,96.30
2018-10-11T21:26:53.268Z,96.60
2018-10-11T21:29:22.746Z,96.60
2018-10-11T21:31:52.222Z,96.40
2018-10-11T21:34:21.770Z,96.30
2018-10-11T21:36:51.270Z,96.20
2018-10-11T21:39:20.786Z,96.30
2018-10-11T21:41:50.248Z,96.30
2018-10-11T21:44:19.709Z,96.40
2018-10-11T21:46:49.156Z,96.30
2018-10-11T21:49:18.613Z,96.30
2018-10-11T21:51:48.265Z,96.30
2018-10-11T21:54:19.077Z,96.30
2018-10-11T21:56:49.122Z,96.20
2018-10-11T21:59:18.746Z,96.10
2018-10-11T22:01:48.666Z,96.20
2018-10-11T22:04:18.160Z,96.30
2018-10-11T22:06:47.706Z,96.40
2018-10-11T22:09:17.202Z,96.30
2018-10-11T22:11:46.706Z,96.20
2018-10-11T22:14:16.230Z,96.30
2018-10-11T22:16:45.697Z,96.30
2018-10-11T22:19:15.146Z,96.20
2018-10-11T22:21:44.603Z,96.30
2018-10-11T22:24:14.066Z,96.40
2018-10-11T22:26:43.586Z,96.40
2018-10-11T22:29:13.087Z,96.40
2018-10-11T22:31:42.602Z,96.90
2018-10-11T22:34:12.046Z,97.00
2018-10-11T22:36:42.622Z,97.10
2018-10-11T22:39:12.714Z,97.10
2018-10-11T22:41:42.375Z,96.90
2018-10-11T22:44:12.517Z,96.70
2018-10-11T22:46:42.626Z,96.70
2018-10-11T22:49:12.165Z,96.60
2018-10-11T22:51:41.725Z,96.60
2018-10-11T22:54:11.514Z,96.50
2018-10-11T22:56:41.038Z,96.60
2018-10-11T22:59:10.591Z,96.40
2018-10-11T23:04:37.465Z,97.00
2018-10-11T23:07:07.162Z,96.80
2018-10-11T23:09:36.762Z,96.70
2018-10-11T23:12:06.370Z,96.80
2018-10-11T23:14:36.019Z,96.80
2018-10-11T23:17:05.573Z,96.80
2018-10-11T23:19:35.087Z,96.70
2018-10-11T23:22:04.662Z,96.50
2018-10-11T23:24:34.206Z,96.60
2018-10-11T23:27:03.734Z,96.60
2018-10-11T23:29:33.270Z,96.60
2018-10-11T23:32:03.223Z,96.60
2018-10-11T23:34:32.752Z,96.40
2018-10-11T23:37:02.253Z,96.30
2018-10-11T23:39:31.781Z,96.30
2018-10-11T23:42:01.430Z,96.40
2018-10-11T23:44:30.984Z,96.50
2018-10-11T23:47:00.551Z,96.50
2018-10-11T23:49:30.051Z,96.80
2018-10-11T23:51:59.617Z,97.00
2018-10-11T23:54:29.121Z,97.10
2018-10-11T23:56:58.662Z,97.20
2018-10-11T23:59:28.179Z,97.30
